sensor_id;sensor_type;location;lat;lon;timestamp;pressure;altitude;pressure_sealevel;temperature;humidity
57708;BME280;43540;51.690;9.562;2023-06-14T00:02:18;99190.22;;;14.37;65.60
57708;BME280;43540;51.690;9.562;2023-06-14T00:04:45;99178.50;;;14.13;67.74
57708;BME280;43540;51.690;9.562;2023-06-14T00:07:11;99159.00;;;13.88;69.17
57708;BME280;43540;51.690;9.562;2023-06-14T00:09:40;99193.50;;;13.95;69.07
57708;BME280;43540;51.690;9.562;2023-06-14T00:12:07;99176.84;;;13.77;70.06
57708;BME280;43540;51.690;9.562;2023-06-14T00:14:35;99214.81;;;14.02;71.61
57708;BME280;43540;51.690;9.562;2023-06-14T00:17:01;99224.53;;;14.01;71.41
57708;BME280;43540;51.690;9.562;2023-06-14T00:19:30;99217.19;;;13.77;72.23
57708;BME280;43540;51.690;9.562;2023-06-14T00:21:59;99178.78;;;13.39;74.06
57708;BME280;43540;51.690;9.562;2023-06-14T00:24:25;99221.19;;;13.63;74.38
57708;BME280;43540;51.690;9.562;2023-06-14T00:26:52;99192.84;;;13.30;76.05
57708;BME280;43540;51.690;9.562;2023-06-14T00:29:18;99215.56;;;13.31;77.31
57708;BME280;43540;51.690;9.562;2023-06-14T00:31:45;99216.69;;;13.19;78.52
57708;BME280;43540;51.690;9.562;2023-06-14T00:34:12;99222.84;;;13.09;79.16
57708;BME280;43540;51.690;9.562;2023-06-14T00:36:38;99237.34;;;13.14;81.61
57708;BME280;43540;51.690;9.562;2023-06-14T00:39:05;99214.88;;;12.92;81.29
57708;BME280;43540;51.690;9.562;2023-06-14T00:41:31;99213.22;;;12.91;82.15
57708;BME280;43540;51.690;9.562;2023-06-14T00:43:57;99197.13;;;12.57;82.68
57708;BME280;43540;51.690;9.562;2023-06-14T00:46:24;99225.47;;;12.72;83.94
57708;BME280;43540;51.690;9.562;2023-06-14T00:48:52;99224.91;;;12.59;84.42
57708;BME280;43540;51.690;9.562;2023-06-14T00:51:18;99199.19;;;12.43;85.61
57708;BME280;43540;51.690;9.562;2023-06-14T00:53:45;99181.66;;;12.34;86.07
57708;BME280;43540;51.690;9.562;2023-06-14T00:56:14;99186.22;;;12.32;85.66
57708;BME280;43540;51.690;9.562;2023-06-14T00:58:41;99224.38;;;12.56;84.45
57708;BME280;43540;51.690;9.562;2023-06-14T01:01:08;99182.41;;;12.17;86.19
57708;BME280;43540;51.690;9.562;2023-06-14T01:03:34;99274.75;;;12.51;86.87
57708;BME280;43540;51.690;9.562;2023-06-14T01:06:20;99224.97;;;12.20;87.75
57708;BME280;43540;51.690;9.562;2023-06-14T01:09:15;99238.81;;;12.13;88.81
57708;BME280;43540;51.690;9.562;2023-06-14T01:12:04;99228.44;;;12.11;88.55
57708;BME280;43540;51.690;9.562;2023-06-14T01:14:34;99199.94;;;11.97;88.21
57708;BME280;43540;51.690;9.562;2023-06-14T01:17:01;99239.94;;;12.01;89.91
57708;BME280;43540;51.690;9.562;2023-06-14T01:19:28;99180.28;;;11.53;90.54
57708;BME280;43540;51.690;9.562;2023-06-14T01:21:55;99296.06;;;12.09;92.63
57708;BME280;43540;51.690;9.562;2023-06-14T01:24:22;99146.06;;;11.04;93.45
57708;BME280;43540;51.690;9.562;2023-06-14T01:26:59;99154.06;;;11.03;94.04
57708;BME280;43540;51.690;9.562;2023-06-14T01:29:27;99181.97;;;11.14;93.87
57708;BME280;43540;51.690;9.562;2023-06-14T15:14:00;99394.91;;;24.65;42.99
57708;BME280;43540;51.690;9.562;2023-06-14T15:16:26;99367.91;;;24.22;42.41
57708;BME280;43540;51.690;9.562;2023-06-14T15:18:53;99381.44;;;23.89;42.21
57708;BME280;43540;51.690;9.562;2023-06-14T15:21:19;99376.25;;;24.01;42.90
57708;BME280;43540;51.690;9.562;2023-06-14T15:23:46;99381.03;;;23.86;42.85
57708;BME280;43540;51.690;9.562;2023-06-14T15:26:12;99378.22;;;23.67;43.21
57708;BME280;43540;51.690;9.562;2023-06-14T15:28:39;99385.56;;;23.85;41.92
57708;BME280;43540;51.690;9.562;2023-06-14T15:31:05;99325.59;;;23.35;41.86
57708;BME280;43540;51.690;9.562;2023-06-14T15:33:33;99377.56;;;23.78;41.08
57708;BME280;43540;51.690;9.562;2023-06-14T15:35:59;99367.97;;;24.16;41.38
57708;BME280;43540;51.690;9.562;2023-06-14T15:38:25;99394.25;;;24.32;40.54
57708;BME280;43540;51.690;9.562;2023-06-14T15:40:52;99359.25;;;24.20;41.41
57708;BME280;43540;51.690;9.562;2023-06-14T15:43:19;99366.56;;;24.51;41.60
57708;BME280;43540;51.690;9.562;2023-06-14T15:45:47;99348.78;;;24.57;41.01
57708;BME280;43540;51.690;9.562;2023-06-14T15:48:13;99379.41;;;24.29;42.36
57708;BME280;43540;51.690;9.562;2023-06-14T15:50:40;99374.22;;;23.96;41.74
57708;BME280;43540;51.690;9.562;2023-06-14T15:53:06;99405.25;;;24.10;41.25
57708;BME280;43540;51.690;9.562;2023-06-14T15:55:33;99375.44;;;24.45;41.07
57708;BME280;43540;51.690;9.562;2023-06-14T15:57:59;99380.59;;;24.78;40.50
57708;BME280;43540;51.690;9.562;2023-06-14T16:00:26;99305.69;;;24.58;40.86
57708;BME280;43540;51.690;9.562;2023-06-14T16:02:52;99373.16;;;24.80;41.47
57708;BME280;43540;51.690;9.562;2023-06-14T16:05:19;99381.13;;;24.87;41.64
57708;BME280;43540;51.690;9.562;2023-06-14T16:07:46;99373.75;;;24.82;39.93
57708;BME280;43540;51.690;9.562;2023-06-14T16:10:14;99386.31;;;25.13;40.75
57708;BME280;43540;51.690;9.562;2023-06-14T16:12:41;99390.88;;;25.56;40.42
57708;BME280;43540;51.690;9.562;2023-06-14T16:15:08;99300.50;;;25.13;40.03
57708;BME280;43540;51.690;9.562;2023-06-14T16:17:35;99384.69;;;25.56;40.21
57708;BME280;43540;51.690;9.562;2023-06-14T16:20:01;99357.66;;;25.32;39.46
57708;BME280;43540;51.690;9.562;2023-06-14T16:22:28;99347.06;;;25.19;40.32
57708;BME280;43540;51.690;9.562;2023-06-14T16:24:54;99320.63;;;24.73;39.16
57708;BME280;43540;51.690;9.562;2023-06-14T16:27:21;99307.72;;;24.31;41.14
57708;BME280;43540;51.690;9.562;2023-06-14T16:29:47;99324.19;;;24.35;41.74
57708;BME280;43540;51.690;9.562;2023-06-14T16:32:14;99305.25;;;23.92;41.88
57708;BME280;43540;51.690;9.562;2023-06-14T16:34:41;99387.03;;;23.81;42.47
57708;BME280;43540;51.690;9.562;2023-06-14T16:37:11;99271.59;;;22.86;43.23
57708;BME280;43540;51.690;9.562;2023-06-14T16:39:38;99293.34;;;23.03;43.31
57708;BME280;43540;51.690;9.562;2023-06-14T16:42:04;99307.94;;;23.14;42.89
57708;BME280;43540;51.690;9.562;2023-06-14T16:44:31;99381.72;;;23.54;43.41
57708;BME280;43540;51.690;9.562;2023-06-14T16:46:58;99383.81;;;23.33;43.19
57708;BME280;43540;51.690;9.562;2023-06-14T16:49:26;99380.94;;;23.34;43.20
57708;BME280;43540;51.690;9.562;2023-06-14T16:51:53;99374.53;;;22.82;44.26
57708;BME280;43540;51.690;9.562;2023-06-14T16:54:20;99382.34;;;22.77;45.27
57708;BME280;43540;51.690;9.562;2023-06-14T16:56:46;99379.56;;;22.31;47.45
57708;BME280;43540;51.690;9.562;2023-06-14T16:59:16;99254.91;;;21.64;44.04
57708;BME280;43540;51.690;9.562;2023-06-14T17:01:43;99382.97;;;22.79;45.63
57708;BME280;43540;51.690;9.562;2023-06-14T17:04:09;99299.50;;;22.51;45.20
57708;BME280;43540;51.690;9.562;2023-06-14T17:06:36;99391.41;;;23.29;44.18
57708;BME280;43540;51.690;9.562;2023-06-14T17:09:03;99325.88;;;22.87;43.62
57708;BME280;43540;51.690;9.562;2023-06-14T17:11:29;99395.91;;;23.48;43.73
57708;BME280;43540;51.690;9.562;2023-06-14T17:13:55;99414.88;;;23.34;43.88
57708;BME280;43540;51.690;9.562;2023-06-14T17:16:22;99393.06;;;23.30;43.61
57708;BME280;43540;51.690;9.562;2023-06-14T17:18:48;99409.94;;;23.31;43.16
57708;BME280;43540;51.690;9.562;2023-06-14T17:21:15;99430.72;;;23.35;43.12
57708;BME280;43540;51.690;9.562;2023-06-14T17:23:42;99390.41;;;23.17;43.87
57708;BME280;43540;51.690;9.562;2023-06-14T17:26:08;99336.09;;;22.70;44.02
57708;BME280;43540;51.690;9.562;2023-06-14T17:28:35;99353.41;;;22.87;44.31
57708;BME280;43540;51.690;9.562;2023-06-14T17:31:02;99416.72;;;23.13;44.36
57708;BME280;43540;51.690;9.562;2023-06-14T17:33:29;99397.75;;;22.82;43.65
57708;BME280;43540;51.690;9.562;2023-06-14T17:35:55;99294.34;;;22.23;45.21
57708;BME280;43540;51.690;9.562;2023-06-14T17:38:22;99354.34;;;22.47;44.67
57708;BME280;43540;51.690;9.562;2023-06-14T17:40:49;99434.78;;;22.85;45.14
57708;BME280;43540;51.690;9.562;2023-06-14T17:43:31;99382.13;;;22.59;44.67
57708;BME280;43540;51.690;9.562;2023-06-14T17:45:57;99394.00;;;22.43;45.69
57708;BME280;43540;51.690;9.562;2023-06-14T17:48:24;99442.09;;;22.56;44.58
57708;BME280;43540;51.690;9.562;2023-06-14T17:50:51;99401.56;;;22.33;46.84
57708;BME280;43540;51.690;9.562;2023-06-14T17:53:18;99343.03;;;21.83;46.85
57708;BME280;43540;51.690;9.562;2023-06-14T17:55:44;99379.75;;;22.16;44.73
57708;BME280;43540;51.690;9.562;2023-06-14T17:58:11;99376.97;;;22.03;44.26
57708;BME280;43540;51.690;9.562;2023-06-14T18:00:37;99402.19;;;21.94;45.69
57708;BME280;43540;51.690;9.562;2023-06-14T18:03:06;99393.97;;;21.89;45.85
57708;BME280;43540;51.690;9.562;2023-06-14T18:05:33;99400.63;;;22.06;45.16
57708;BME280;43540;51.690;9.562;2023-06-14T18:08:03;99409.38;;;21.93;44.65
57708;BME280;43540;51.690;9.562;2023-06-14T18:10:33;99333.41;;;21.48;45.53
57708;BME280;43540;51.690;9.562;2023-06-14T18:13:00;99410.13;;;21.80;45.38
57708;BME280;43540;51.690;9.562;2023-06-14T18:15:26;99317.69;;;20.97;45.21
57708;BME280;43540;51.690;9.562;2023-06-14T18:17:53;99421.50;;;21.61;46.12
57708;BME280;43540;51.690;9.562;2023-06-14T18:20:22;99421.75;;;21.38;47.38
57708;BME280;43540;51.690;9.562;2023-06-14T18:22:50;99368.25;;;20.90;47.37
57708;BME280;43540;51.690;9.562;2023-06-14T18:25:20;99421.38;;;21.20;46.86
57708;BME280;43540;51.690;9.562;2023-06-14T18:27:50;99354.00;;;20.77;46.96
57708;BME280;43540;51.690;9.562;2023-06-14T18:30:16;99431.34;;;21.11;47.24
57708;BME280;43540;51.690;9.562;2023-06-14T18:32:43;99354.81;;;20.56;46.71
57708;BME280;43540;51.690;9.562;2023-06-14T18:35:14;99349.88;;;20.38;46.30
57708;BME280;43540;51.690;9.562;2023-06-14T18:37:42;99356.50;;;20.42;47.16
57708;BME280;43540;51.690;9.562;2023-06-14T18:40:09;99446.09;;;21.07;48.65
57708;BME280;43540;51.690;9.562;2023-06-14T18:42:36;99351.00;;;20.43;49.94
57708;BME280;43540;51.690;9.562;2023-06-14T18:45:03;99429.84;;;20.81;50.03
57708;BME280;43540;51.690;9.562;2023-06-14T18:47:31;99305.88;;;19.99;51.05
57708;BME280;43540;51.690;9.562;2023-06-14T18:49:58;99344.53;;;19.95;51.19
57708;BME280;43540;51.690;9.562;2023-06-14T18:52:24;99451.84;;;20.68;51.19
57708;BME280;43540;51.690;9.562;2023-06-14T18:54:53;99374.41;;;20.12;50.31
57708;BME280;43540;51.690;9.562;2023-06-14T18:57:20;99389.16;;;20.00;50.45
57708;BME280;43540;51.690;9.562;2023-06-14T18:59:47;99390.09;;;20.07;50.85
57708;BME280;43540;51.690;9.562;2023-06-14T19:02:13;99413.34;;;20.20;50.80
57708;BME280;43540;51.690;9.562;2023-06-14T19:04:40;99435.59;;;20.12;52.28
57708;BME280;43540;51.690;9.562;2023-06-14T19:07:07;99430.28;;;20.12;51.93
57708;BME280;43540;51.690;9.562;2023-06-14T19:09:34;99366.91;;;19.71;54.25
57708;BME280;43540;51.690;9.562;2023-06-14T19:12:01;99364.78;;;19.52;53.81
57708;BME280;43540;51.690;9.562;2023-06-14T19:14:28;99401.94;;;19.60;54.56
57708;BME280;43540;51.690;9.562;2023-06-14T19:16:54;99364.13;;;19.35;54.43
57708;BME280;43540;51.690;9.562;2023-06-14T19:19:21;99426.06;;;19.58;55.91
57708;BME280;43540;51.690;9.562;2023-06-14T19:21:48;99422.53;;;19.43;57.03
57708;BME280;43540;51.690;9.562;2023-06-14T19:24:14;99390.03;;;19.18;57.68
57708;BME280;43540;51.690;9.562;2023-06-14T19:26:42;99481.75;;;19.52;59.36
57708;BME280;43540;51.690;9.562;2023-06-14T19:29:09;99459.81;;;19.35;59.60
57708;BME280;43540;51.690;9.562;2023-06-14T19:31:38;99469.50;;;19.28;60.19
57708;BME280;43540;51.690;9.562;2023-06-14T19:34:05;99461.00;;;19.10;60.65
57708;BME280;43540;51.690;9.562;2023-06-14T19:37:11;99487.19;;;19.21;61.74
57708;BME280;43540;51.690;9.562;2023-06-14T19:43:12;99487.59;;;18.87;65.11
57708;BME280;43540;51.690;9.562;2023-06-14T19:46:45;99380.75;;;18.23;64.69
57708;BME280;43540;51.690;9.562;2023-06-14T19:48:55;99410.03;;;18.06;66.01
57708;BME280;43540;51.690;9.562;2023-06-14T19:51:21;99426.13;;;17.97;67.42
57708;BME280;43540;51.690;9.562;2023-06-14T19:53:48;99432.34;;;17.73;69.06
57708;BME280;43540;51.690;9.562;2023-06-14T19:56:14;99429.03;;;17.62;71.70
57708;BME280;43540;51.690;9.562;2023-06-14T19:58:41;99442.94;;;17.64;71.84
57708;BME280;43540;51.690;9.562;2023-06-14T20:01:08;99452.69;;;17.64;71.40
57708;BME280;43540;51.690;9.562;2023-06-14T20:03:34;99509.03;;;17.90;71.14
57708;BME280;43540;51.690;9.562;2023-06-14T20:06:01;99456.72;;;17.44;72.37
57708;BME280;43540;51.690;9.562;2023-06-14T20:08:28;99473.44;;;17.36;76.51
57708;BME280;43540;51.690;9.562;2023-06-14T20:10:57;99455.09;;;17.10;76.05
57708;BME280;43540;51.690;9.562;2023-06-14T20:13:23;99412.34;;;16.72;78.58
57708;BME280;43540;51.690;9.562;2023-06-14T20:15:50;99497.44;;;17.18;79.07
57708;BME280;43540;51.690;9.562;2023-06-14T20:18:16;99446.75;;;16.72;80.44
57708;BME280;43540;51.690;9.562;2023-06-14T20:20:43;99455.19;;;16.68;80.80
57708;BME280;43540;51.690;9.562;2023-06-14T20:23:10;99518.31;;;17.05;80.93
57708;BME280;43540;51.690;9.562;2023-06-14T20:25:36;99429.16;;;16.39;81.38
57708;BME280;43540;51.690;9.562;2023-06-14T20:28:12;99466.41;;;16.62;81.00
57708;BME280;43540;51.690;9.562;2023-06-14T20:30:42;99453.47;;;16.50;81.54
57708;BME280;43540;51.690;9.562;2023-06-14T20:33:08;99464.84;;;16.43;83.14
57708;BME280;43540;51.690;9.562;2023-06-14T20:35:35;99467.16;;;16.30;83.56
57708;BME280;43540;51.690;9.562;2023-06-14T20:38:14;99465.63;;;16.27;82.97
57708;BME280;43540;51.690;9.562;2023-06-14T20:40:50;99384.13;;;15.46;83.76
57708;BME280;43540;51.690;9.562;2023-06-14T20:43:21;99456.53;;;15.87;85.50
57708;BME280;43540;51.690;9.562;2023-06-14T20:45:47;99533.06;;;16.23;85.47
57708;BME280;43540;51.690;9.562;2023-06-14T20:51:33;99394.63;;;15.12;88.06
